sensor_id;sensor_type;location;lat;lon;timestamp;temperature;humidity
21207;DHT22;10761;48.532;8.026;2023-06-14T00:00:38;17.40;1.00
21207;DHT22;10761;48.532;8.026;2023-06-14T00:03:08;17.40;1.00
21207;DHT22;10761;48.532;8.026;2023-06-14T00:05:35;17.60;1.00
21207;DHT22;10761;48.532;8.026;2023-06-14T00:08:06;17.70;1.00
21207;DHT22;10761;48.532;8.026;2023-06-14T00:10:35;17.80;1.00
21207;DHT22;10761;48.532;8.026;2023-06-14T00:13:02;17.80;1.00
21207;DHT22;10761;48.532;8.026;2023-06-14T00:15:30;17.80;1.00
21207;DHT22;10761;48.532;8.026;2023-06-14T00:17:59;17.70;1.00
21207;DHT22;10761;48.532;8.026;2023-06-14T00:20:29;17.80;1.00
21207;DHT22;10761;48.532;8.026;2023-06-14T00:22:56;17.80;1.00
21207;DHT22;10761;48.532;8.026;2023-06-14T00:25:23;17.80;1.00
21207;DHT22;10761;48.532;8.026;2023-06-14T00:27:50;17.80;1.00
21207;DHT22;10761;48.532;8.026;2023-06-14T00:30:16;17.80;1.00
21207;DHT22;10761;48.532;8.026;2023-06-14T00:32:42;17.80;1.00
21207;DHT22;10761;48.532;8.026;2023-06-14T00:35:09;17.70;1.00
21207;DHT22;10761;48.532;8.026;2023-06-14T00:37:35;17.50;1.00
21207;DHT22;10761;48.532;8.026;2023-06-14T00:40:00;17.40;1.00
21207;DHT22;10761;48.532;8.026;2023-06-14T00:46:01;17.20;1.00
21207;DHT22;10761;48.532;8.026;2023-06-14T00:48:28;17.10;1.00
21207;DHT22;10761;48.532;8.026;2023-06-14T00:50:54;16.90;1.00
21207;DHT22;10761;48.532;8.026;2023-06-14T00:53:20;16.80;1.00
21207;DHT22;10761;48.532;8.026;2023-06-14T00:59:10;16.30;1.00
21207;DHT22;10761;48.532;8.026;2023-06-14T01:01:36;16.10;1.00
21207;DHT22;10761;48.532;8.026;2023-06-14T01:04:02;15.90;1.00
21207;DHT22;10761;48.532;8.026;2023-06-14T01:12:17;14.90;78.50
21207;DHT22;10761;48.532;8.026;2023-06-14T01:14:47;14.50;99.90
21207;DHT22;10761;48.532;8.026;2023-06-14T01:17:14;14.30;99.90
21207;DHT22;10761;48.532;8.026;2023-06-14T01:19:43;14.10;99.90
21207;DHT22;10761;48.532;8.026;2023-06-14T01:22:10;14.00;99.90
21207;DHT22;10761;48.532;8.026;2023-06-14T01:24:36;13.90;99.90
21207;DHT22;10761;48.532;8.026;2023-06-14T01:27:02;13.80;99.90
21207;DHT22;10761;48.532;8.026;2023-06-14T01:29:29;13.80;99.90
21207;DHT22;10761;48.532;8.026;2023-06-14T01:31:59;13.80;99.90
21207;DHT22;10761;48.532;8.026;2023-06-14T01:34:25;13.70;99.90
21207;DHT22;10761;48.532;8.026;2023-06-14T01:36:52;13.60;99.90
21207;DHT22;10761;48.532;8.026;2023-06-14T01:39:20;13.60;99.90
21207;DHT22;10761;48.532;8.026;2023-06-14T01:41:47;13.50;99.90
21207;DHT22;10761;48.532;8.026;2023-06-14T01:44:19;13.40;99.90
21207;DHT22;10761;48.532;8.026;2023-06-14T01:53:25;13.30;99.90
21207;DHT22;10761;48.532;8.026;2023-06-14T01:55:51;13.20;99.90
21207;DHT22;10761;48.532;8.026;2023-06-14T01:58:19;13.30;99.90
21207;DHT22;10761;48.532;8.026;2023-06-14T02:00:45;13.40;99.90
21207;DHT22;10761;48.532;8.026;2023-06-14T02:03:11;13.50;99.90
21207;DHT22;10761;48.532;8.026;2023-06-14T02:05:37;13.70;99.90
21207;DHT22;10761;48.532;8.026;2023-06-14T02:08:05;13.70;99.90
21207;DHT22;10761;48.532;8.026;2023-06-14T02:10:31;13.70;99.90
21207;DHT22;10761;48.532;8.026;2023-06-14T02:12:56;13.70;99.90
21207;DHT22;10761;48.532;8.026;2023-06-14T02:15:22;13.80;99.90
21207;DHT22;10761;48.532;8.026;2023-06-14T02:21:10;13.70;99.90
21207;DHT22;10761;48.532;8.026;2023-06-14T02:23:35;13.70;99.90
21207;DHT22;10761;48.532;8.026;2023-06-14T02:26:01;13.60;99.90
21207;DHT22;10761;48.532;8.026;2023-06-14T02:28:28;13.70;99.90
21207;DHT22;10761;48.532;8.026;2023-06-14T02:30:53;13.60;99.90
21207;DHT22;10761;48.532;8.026;2023-06-14T02:33:19;13.70;99.90
21207;DHT22;10761;48.532;8.026;2023-06-14T02:35:45;13.70;99.90
21207;DHT22;10761;48.532;8.026;2023-06-14T02:38:11;13.70;99.90
21207;DHT22;10761;48.532;8.026;2023-06-14T02:40:37;13.60;99.90
21207;DHT22;10761;48.532;8.026;2023-06-14T02:43:02;13.50;99.90
21207;DHT22;10761;48.532;8.026;2023-06-14T02:45:28;13.30;99.90
21207;DHT22;10761;48.532;8.026;2023-06-14T02:47:54;13.20;99.90
21207;DHT22;10761;48.532;8.026;2023-06-14T02:50:21;13.10;99.90
21207;DHT22;10761;48.532;8.026;2023-06-14T02:52:47;13.00;99.90
21207;DHT22;10761;48.532;8.026;2023-06-14T02:55:12;12.80;1.00
21207;DHT22;10761;48.532;8.026;2023-06-14T02:57:38;12.70;1.00
21207;DHT22;10761;48.532;8.026;2023-06-14T03:00:04;12.60;1.00
21207;DHT22;10761;48.532;8.026;2023-06-14T03:02:30;12.50;1.00
21207;DHT22;10761;48.532;8.026;2023-06-14T03:04:56;12.40;1.00
21207;DHT22;10761;48.532;8.026;2023-06-14T03:07:27;12.30;1.00
21207;DHT22;10761;48.532;8.026;2023-06-14T03:09:53;12.20;1.00
21207;DHT22;10761;48.532;8.026;2023-06-14T03:12:18;12.20;1.00
21207;DHT22;10761;48.532;8.026;2023-06-14T03:14:44;12.20;1.00
21207;DHT22;10761;48.532;8.026;2023-06-14T03:17:12;12.20;1.00
21207;DHT22;10761;48.532;8.026;2023-06-14T03:19:37;12.30;1.00
21207;DHT22;10761;48.532;8.026;2023-06-14T03:22:03;12.30;1.00
21207;DHT22;10761;48.532;8.026;2023-06-14T03:24:29;12.30;1.00
21207;DHT22;10761;48.532;8.026;2023-06-14T03:26:54;12.40;1.00
21207;DHT22;10761;48.532;8.026;2023-06-14T03:29:20;12.40;1.00
21207;DHT22;10761;48.532;8.026;2023-06-14T03:31:58;12.40;99.90
21207;DHT22;10761;48.532;8.026;2023-06-14T03:34:24;12.40;95.70
21207;DHT22;10761;48.532;8.026;2023-06-14T03:36:49;12.40;33.70
21207;DHT22;10761;48.532;8.026;2023-06-14T03:39:15;12.40;1.00
21207;DHT22;10761;48.532;8.026;2023-06-14T03:41:41;12.50;1.00
21207;DHT22;10761;48.532;8.026;2023-06-14T03:44:06;12.60;1.00
21207;DHT22;10761;48.532;8.026;2023-06-14T03:46:32;12.70;1.00
21207;DHT22;10761;48.532;8.026;2023-06-14T03:48:58;12.70;1.00
21207;DHT22;10761;48.532;8.026;2023-06-14T03:51:23;12.80;1.00
21207;DHT22;10761;48.532;8.026;2023-06-14T03:53:50;12.80;1.00
21207;DHT22;10761;48.532;8.026;2023-06-14T03:56:16;12.80;1.00
21207;DHT22;10761;48.532;8.026;2023-06-14T03:58:41;12.70;1.00
21207;DHT22;10761;48.532;8.026;2023-06-14T04:07:51;12.60;99.90
21207;DHT22;10761;48.532;8.026;2023-06-14T04:13:40;12.80;99.90
21207;DHT22;10761;48.532;8.026;2023-06-14T04:16:06;12.90;99.90
21207;DHT22;10761;48.532;8.026;2023-06-14T04:18:31;12.90;99.90
21207;DHT22;10761;48.532;8.026;2023-06-14T04:20:57;13.00;99.90
21207;DHT22;10761;48.532;8.026;2023-06-14T04:23:22;13.10;99.90
21207;DHT22;10761;48.532;8.026;2023-06-14T04:25:48;13.10;99.90
21207;DHT22;10761;48.532;8.026;2023-06-14T04:28:15;13.20;99.90
21207;DHT22;10761;48.532;8.026;2023-06-14T04:30:44;13.30;1.00
21207;DHT22;10761;48.532;8.026;2023-06-14T04:33:12;13.30;82.60
21207;DHT22;10761;48.532;8.026;2023-06-14T04:35:39;13.30;34.30
21207;DHT22;10761;48.532;8.026;2023-06-14T04:38:06;13.30;1.00
21207;DHT22;10761;48.532;8.026;2023-06-14T04:40:35;13.40;1.00
21207;DHT22;10761;48.532;8.026;2023-06-14T04:43:02;13.50;1.00
21207;DHT22;10761;48.532;8.026;2023-06-14T04:45:32;13.70;1.00
21207;DHT22;10761;48.532;8.026;2023-06-14T04:47:59;13.80;1.00
21207;DHT22;10761;48.532;8.026;2023-06-14T04:50:24;13.90;1.00
21207;DHT22;10761;48.532;8.026;2023-06-14T04:52:50;14.00;1.00
21207;DHT22;10761;48.532;8.026;2023-06-14T04:55:17;14.20;1.00
21207;DHT22;10761;48.532;8.026;2023-06-14T04:57:44;14.30;1.00
21207;DHT22;10761;48.532;8.026;2023-06-14T05:00:10;14.30;1.00
21207;DHT22;10761;48.532;8.026;2023-06-14T05:02:37;14.40;1.00
21207;DHT22;10761;48.532;8.026;2023-06-14T05:05:03;14.50;1.00
21207;DHT22;10761;48.532;8.026;2023-06-14T05:07:32;14.60;1.00
21207;DHT22;10761;48.532;8.026;2023-06-14T05:09:59;14.70;1.00
21207;DHT22;10761;48.532;8.026;2023-06-14T05:12:25;14.80;1.00
21207;DHT22;10761;48.532;8.026;2023-06-14T05:14:50;14.80;1.00
21207;DHT22;10761;48.532;8.026;2023-06-14T05:17:16;15.00;1.00
21207;DHT22;10761;48.532;8.026;2023-06-14T05:19:42;15.10;1.00
21207;DHT22;10761;48.532;8.026;2023-06-14T05:22:08;15.20;1.00
21207;DHT22;10761;48.532;8.026;2023-06-14T05:24:34;15.40;1.00
21207;DHT22;10761;48.532;8.026;2023-06-14T05:27:00;15.50;1.00
21207;DHT22;10761;48.532;8.026;2023-06-14T05:29:26;15.70;1.00
21207;DHT22;10761;48.532;8.026;2023-06-14T05:31:53;15.80;1.00
21207;DHT22;10761;48.532;8.026;2023-06-14T05:34:18;16.00;1.00
21207;DHT22;10761;48.532;8.026;2023-06-14T05:36:44;16.20;1.00
21207;DHT22;10761;48.532;8.026;2023-06-14T05:39:10;16.40;1.00
21207;DHT22;10761;48.532;8.026;2023-06-14T05:41:36;16.60;1.00
21207;DHT22;10761;48.532;8.026;2023-06-14T05:44:01;16.80;1.00
21207;DHT22;10761;48.532;8.026;2023-06-14T05:46:27;16.90;1.00
21207;DHT22;10761;48.532;8.026;2023-06-14T05:48:54;17.10;1.00
21207;DHT22;10761;48.532;8.026;2023-06-14T05:51:21;17.20;1.00
21207;DHT22;10761;48.532;8.026;2023-06-14T05:53:47;17.30;1.00
21207;DHT22;10761;48.532;8.026;2023-06-14T05:56:15;17.40;1.00
21207;DHT22;10761;48.532;8.026;2023-06-14T05:58:40;17.40;1.00
21207;DHT22;10761;48.532;8.026;2023-06-14T06:01:06;17.50;1.00
21207;DHT22;10761;48.532;8.026;2023-06-14T06:03:33;17.60;1.00
21207;DHT22;10761;48.532;8.026;2023-06-14T06:05:59;17.80;1.00
21207;DHT22;10761;48.532;8.026;2023-06-14T06:08:26;17.90;1.00
21207;DHT22;10761;48.532;8.026;2023-06-14T06:10:52;18.10;1.00
21207;DHT22;10761;48.532;8.026;2023-06-14T06:13:17;18.30;1.00
21207;DHT22;10761;48.532;8.026;2023-06-14T06:15:43;18.50;1.00
21207;DHT22;10761;48.532;8.026;2023-06-14T06:18:09;18.40;1.00
21207;DHT22;10761;48.532;8.026;2023-06-14T06:20:34;18.50;1.00
21207;DHT22;10761;48.532;8.026;2023-06-14T06:23:02;18.70;1.00
21207;DHT22;10761;48.532;8.026;2023-06-14T06:25:28;18.60;1.00
21207;DHT22;10761;48.532;8.026;2023-06-14T06:27:54;18.60;1.00
21207;DHT22;10761;48.532;8.026;2023-06-14T06:30:22;18.50;1.00
21207;DHT22;10761;48.532;8.026;2023-06-14T06:32:47;18.50;1.00
21207;DHT22;10761;48.532;8.026;2023-06-14T06:35:13;18.80;1.00
21207;DHT22;10761;48.532;8.026;2023-06-14T06:37:39;18.80;99.90
21207;DHT22;10761;48.532;8.026;2023-06-14T06:40:05;18.60;1.00
21207;DHT22;10761;48.532;8.026;2023-06-14T06:42:34;19.00;1.00
21207;DHT22;10761;48.532;8.026;2023-06-14T06:45:00;19.30;99.90
21207;DHT22;10761;48.532;8.026;2023-06-14T06:47:25;19.70;99.90
21207;DHT22;10761;48.532;8.026;2023-06-14T06:49:51;19.60;99.90
21207;DHT22;10761;48.532;8.026;2023-06-14T06:52:17;19.70;99.90
21207;DHT22;10761;48.532;8.026;2023-06-14T06:54:42;20.10;99.90
21207;DHT22;10761;48.532;8.026;2023-06-14T06:57:08;20.30;99.90
21207;DHT22;10761;48.532;8.026;2023-06-14T06:59:34;20.50;99.90
21207;DHT22;10761;48.532;8.026;2023-06-14T07:02:00;20.70;99.90
21207;DHT22;10761;48.532;8.026;2023-06-14T07:04:26;20.70;99.90
21207;DHT22;10761;48.532;8.026;2023-06-14T07:06:51;20.70;99.90
21207;DHT22;10761;48.532;8.026;2023-06-14T07:09:17;20.70;99.90
21207;DHT22;10761;48.532;8.026;2023-06-14T07:11:44;20.90;99.90
21207;DHT22;10761;48.532;8.026;2023-06-14T07:14:10;21.00;99.90
21207;DHT22;10761;48.532;8.026;2023-06-14T07:16:36;21.10;99.90
21207;DHT22;10761;48.532;8.026;2023-06-14T07:19:02;20.80;99.90
21207;DHT22;10761;48.532;8.026;2023-06-14T07:21:29;20.50;99.90
21207;DHT22;10761;48.532;8.026;2023-06-14T07:23:54;20.80;99.90
21207;DHT22;10761;48.532;8.026;2023-06-14T07:26:20;20.80;99.90
21207;DHT22;10761;48.532;8.026;2023-06-14T07:28:47;20.80;99.90
21207;DHT22;10761;48.532;8.026;2023-06-14T07:31:14;20.90;99.90
21207;DHT22;10761;48.532;8.026;2023-06-14T07:33:46;21.40;99.90
21207;DHT22;10761;48.532;8.026;2023-06-14T07:36:12;21.60;99.90
21207;DHT22;10761;48.532;8.026;2023-06-14T07:38:56;21.80;99.90
21207;DHT22;10761;48.532;8.026;2023-06-14T07:41:34;21.50;99.90
21207;DHT22;10761;48.532;8.026;2023-06-14T07:43:59;21.50;99.90
21207;DHT22;10761;48.532;8.026;2023-06-14T07:46:25;21.90;99.90
21207;DHT22;10761;48.532;8.026;2023-06-14T07:48:50;22.40;99.90
21207;DHT22;10761;48.532;8.026;2023-06-14T07:51:16;22.70;99.90
21207;DHT22;10761;48.532;8.026;2023-06-14T07:53:48;23.20;99.90
21207;DHT22;10761;48.532;8.026;2023-06-14T07:56:26;23.70;99.90
21207;DHT22;10761;48.532;8.026;2023-06-14T07:58:52;24.30;25.50
21207;DHT22;10761;48.532;8.026;2023-06-14T08:01:17;24.80;16.50
21207;DHT22;10761;48.532;8.026;2023-06-14T08:03:44;24.90;1.00
21207;DHT22;10761;48.532;8.026;2023-06-14T08:06:10;24.70;1.00
21207;DHT22;10761;48.532;8.026;2023-06-14T08:08:36;24.80;1.00
21207;DHT22;10761;48.532;8.026;2023-06-14T08:11:01;24.80;1.00
21207;DHT22;10761;48.532;8.026;2023-06-14T08:13:27;25.00;1.00
21207;DHT22;10761;48.532;8.026;2023-06-14T08:15:53;25.60;1.00
21207;DHT22;10761;48.532;8.026;2023-06-14T08:18:18;25.40;1.00
21207;DHT22;10761;48.532;8.026;2023-06-14T08:20:44;25.60;1.00
21207;DHT22;10761;48.532;8.026;2023-06-14T08:26:32;25.80;1.00
21207;DHT22;10761;48.532;8.026;2023-06-14T08:28:58;25.90;1.00
21207;DHT22;10761;48.532;8.026;2023-06-14T08:31:24;26.10;1.00
21207;DHT22;10761;48.532;8.026;2023-06-14T08:33:50;25.90;1.00
21207;DHT22;10761;48.532;8.026;2023-06-14T08:36:16;25.90;1.00
21207;DHT22;10761;48.532;8.026;2023-06-14T08:38:41;26.10;1.00
21207;DHT22;10761;48.532;8.026;2023-06-14T08:41:08;26.10;1.00
21207;DHT22;10761;48.532;8.026;2023-06-14T08:43:36;26.40;1.00
21207;DHT22;10761;48.532;8.026;2023-06-14T08:46:04;26.70;1.00
21207;DHT22;10761;48.532;8.026;2023-06-14T08:48:32;27.00;1.00
21207;DHT22;10761;48.532;8.026;2023-06-14T08:51:02;27.30;1.00
21207;DHT22;10761;48.532;8.026;2023-06-14T08:53:33;27.20;1.00
21207;DHT22;10761;48.532;8.026;2023-06-14T08:56:02;27.50;1.00
21207;DHT22;10761;48.532;8.026;2023-06-14T08:58:30;27.70;1.00
21207;DHT22;10761;48.532;8.026;2023-06-14T09:00:57;27.90;1.00
21207;DHT22;10761;48.532;8.026;2023-06-14T09:03:24;28.10;1.00
21207;DHT22;10761;48.532;8.026;2023-06-14T09:05:58;28.00;1.00
21207;DHT22;10761;48.532;8.026;2023-06-14T09:08:27;28.00;1.00
21207;DHT22;10761;48.532;8.026;2023-06-14T09:10:57;28.20;1.00
21207;DHT22;10761;48.532;8.026;2023-06-14T09:13:23;28.00;1.00
21207;DHT22;10761;48.532;8.026;2023-06-14T09:15:49;28.10;1.00
21207;DHT22;10761;48.532;8.026;2023-06-14T09:18:15;28.00;1.00
21207;DHT22;10761;48.532;8.026;2023-06-14T09:20:41;27.90;1.00
21207;DHT22;10761;48.532;8.026;2023-06-14T09:23:06;27.40;1.00
21207;DHT22;10761;48.532;8.026;2023-06-14T09:25:43;27.10;1.00
21207;DHT22;10761;48.532;8.026;2023-06-14T09:28:11;27.00;1.00
21207;DHT22;10761;48.532;8.026;2023-06-14T09:30:38;27.20;1.00
21207;DHT22;10761;48.532;8.026;2023-06-14T09:33:03;27.40;1.00
21207;DHT22;10761;48.532;8.026;2023-06-14T09:35:31;27.50;1.00
21207;DHT22;10761;48.532;8.026;2023-06-14T09:37:57;27.20;1.00
21207;DHT22;10761;48.532;8.026;2023-06-14T09:40:23;27.40;1.00
21207;DHT22;10761;48.532;8.026;2023-06-14T09:42:49;27.60;1.00
21207;DHT22;10761;48.532;8.026;2023-06-14T09:45:15;27.50;1.00
21207;DHT22;10761;48.532;8.026;2023-06-14T09:47:48;27.70;1.00
21207;DHT22;10761;48.532;8.026;2023-06-14T09:50:14;27.60;1.00
21207;DHT22;10761;48.532;8.026;2023-06-14T09:52:43;27.70;1.00
21207;DHT22;10761;48.532;8.026;2023-06-14T09:55:13;27.60;1.00
21207;DHT22;10761;48.532;8.026;2023-06-14T09:57:41;27.90;1.00
21207;DHT22;10761;48.532;8.026;2023-06-14T10:00:09;28.00;1.00
21207;DHT22;10761;48.532;8.026;2023-06-14T10:02:37;27.90;1.00
21207;DHT22;10761;48.532;8.026;2023-06-14T10:05:07;28.00;1.00
21207;DHT22;10761;48.532;8.026;2023-06-14T10:10:06;27.70;1.00
21207;DHT22;10761;48.532;8.026;2023-06-14T10:12:32;28.00;1.00
21207;DHT22;10761;48.532;8.026;2023-06-14T10:14:58;28.20;1.00
21207;DHT22;10761;48.532;8.026;2023-06-14T10:20:28;28.60;1.00
21207;DHT22;10761;48.532;8.026;2023-06-14T10:23:10;28.80;1.00
21207;DHT22;10761;48.532;8.026;2023-06-14T10:25:37;29.10;1.00
21207;DHT22;10761;48.532;8.026;2023-06-14T10:28:20;29.10;1.00
21207;DHT22;10761;48.532;8.026;2023-06-14T10:31:10;28.80;1.00
21207;DHT22;10761;48.532;8.026;2023-06-14T10:33:48;28.40;1.00
21207;DHT22;10761;48.532;8.026;2023-06-14T10:36:27;28.10;1.00
21207;DHT22;10761;48.532;8.026;2023-06-14T10:39:10;27.70;1.00
21207;DHT22;10761;48.532;8.026;2023-06-14T10:41:39;27.30;1.00
21207;DHT22;10761;48.532;8.026;2023-06-14T10:46:46;27.40;1.00
21207;DHT22;10761;48.532;8.026;2023-06-14T10:49:12;27.60;1.00
21207;DHT22;10761;48.532;8.026;2023-06-14T10:51:42;27.80;1.00
21207;DHT22;10761;48.532;8.026;2023-06-14T10:54:14;27.80;1.00
21207;DHT22;10761;48.532;8.026;2023-06-14T10:56:50;27.90;1.00
21207;DHT22;10761;48.532;8.026;2023-06-14T10:59:17;28.00;1.00
21207;DHT22;10761;48.532;8.026;2023-06-14T11:05:03;29.00;1.00
21207;DHT22;10761;48.532;8.026;2023-06-14T11:12:55;28.30;1.00
21207;DHT22;10761;48.532;8.026;2023-06-14T11:15:37;28.30;1.00
21207;DHT22;10761;48.532;8.026;2023-06-14T11:18:05;28.50;1.00
21207;DHT22;10761;48.532;8.026;2023-06-14T11:20:33;28.50;1.00
21207;DHT22;10761;48.532;8.026;2023-06-14T11:22:59;28.60;1.00
21207;DHT22;10761;48.532;8.026;2023-06-14T11:25:25;28.60;1.00
21207;DHT22;10761;48.532;8.026;2023-06-14T11:27:52;28.30;1.00
21207;DHT22;10761;48.532;8.026;2023-06-14T11:30:18;28.00;1.00
21207;DHT22;10761;48.532;8.026;2023-06-14T11:32:47;28.20;1.00
21207;DHT22;10761;48.532;8.026;2023-06-14T11:35:13;28.50;1.00
21207;DHT22;10761;48.532;8.026;2023-06-14T11:37:39;28.30;1.00
21207;DHT22;10761;48.532;8.026;2023-06-14T11:40:07;27.70;1.00
21207;DHT22;10761;48.532;8.026;2023-06-14T11:42:35;27.80;1.00
21207;DHT22;10761;48.532;8.026;2023-06-14T11:45:01;28.00;1.00
21207;DHT22;10761;48.532;8.026;2023-06-14T11:47:31;28.00;1.00
21207;DHT22;10761;48.532;8.026;2023-06-14T11:50:01;27.80;1.00
21207;DHT22;10761;48.532;8.026;2023-06-14T11:52:28;27.90;1.00
21207;DHT22;10761;48.532;8.026;2023-06-14T11:54:54;27.70;1.00
21207;DHT22;10761;48.532;8.026;2023-06-14T11:57:20;27.80;1.00
21207;DHT22;10761;48.532;8.026;2023-06-14T11:59:46;28.10;1.00
21207;DHT22;10761;48.532;8.026;2023-06-14T12:02:16;28.60;1.00
21207;DHT22;10761;48.532;8.026;2023-06-14T12:04:43;28.70;1.00
21207;DHT22;10761;48.532;8.026;2023-06-14T12:07:10;28.80;1.00
21207;DHT22;10761;48.532;8.026;2023-06-14T12:12:26;28.20;1.00
21207;DHT22;10761;48.532;8.026;2023-06-14T12:14:54;28.20;1.00
21207;DHT22;10761;48.532;8.026;2023-06-14T12:17:21;28.40;1.00
21207;DHT22;10761;48.532;8.026;2023-06-14T12:19:48;28.60;1.00
21207;DHT22;10761;48.532;8.026;2023-06-14T12:22:16;28.60;1.00
21207;DHT22;10761;48.532;8.026;2023-06-14T12:24:45;28.40;1.00
21207;DHT22;10761;48.532;8.026;2023-06-14T12:27:12;28.00;1.00
21207;DHT22;10761;48.532;8.026;2023-06-14T12:29:41;28.30;1.00
21207;DHT22;10761;48.532;8.026;2023-06-14T12:32:09;28.70;1.00
21207;DHT22;10761;48.532;8.026;2023-06-14T12:34:35;28.60;1.00
21207;DHT22;10761;48.532;8.026;2023-06-14T12:37:01;28.70;1.00
21207;DHT22;10761;48.532;8.026;2023-06-14T12:39:27;28.60;1.00
21207;DHT22;10761;48.532;8.026;2023-06-14T12:41:53;28.60;1.00
21207;DHT22;10761;48.532;8.026;2023-06-14T12:44:19;28.70;1.00
21207;DHT22;10761;48.532;8.026;2023-06-14T12:46:45;28.60;1.00
21207;DHT22;10761;48.532;8.026;2023-06-14T12:49:11;28.60;1.00
21207;DHT22;10761;48.532;8.026;2023-06-14T12:51:38;28.10;1.00
21207;DHT22;10761;48.532;8.026;2023-06-14T12:54:04;28.00;1.00
21207;DHT22;10761;48.532;8.026;2023-06-14T12:56:30;28.10;1.00
21207;DHT22;10761;48.532;8.026;2023-06-14T12:58:56;28.60;1.00
21207;DHT22;10761;48.532;8.026;2023-06-14T13:01:22;29.10;1.00
21207;DHT22;10761;48.532;8.026;2023-06-14T13:03:47;29.00;1.00
21207;DHT22;10761;48.532;8.026;2023-06-14T13:06:13;29.00;1.00
21207;DHT22;10761;48.532;8.026;2023-06-14T13:08:39;29.30;1.00
21207;DHT22;10761;48.532;8.026;2023-06-14T13:11:05;29.30;1.00
21207;DHT22;10761;48.532;8.026;2023-06-14T13:13:30;29.30;1.00
21207;DHT22;10761;48.532;8.026;2023-06-14T13:15:56;29.20;1.00
21207;DHT22;10761;48.532;8.026;2023-06-14T13:18:21;28.70;1.00
21207;DHT22;10761;48.532;8.026;2023-06-14T13:20:47;28.40;1.00
21207;DHT22;10761;48.532;8.026;2023-06-14T13:23:13;28.30;1.00
21207;DHT22;10761;48.532;8.026;2023-06-14T13:25:40;28.30;1.00
21207;DHT22;10761;48.532;8.026;2023-06-14T13:28:05;27.90;1.00
21207;DHT22;10761;48.532;8.026;2023-06-14T13:30:32;28.20;1.00
21207;DHT22;10761;48.532;8.026;2023-06-14T13:32:58;28.40;1.00
21207;DHT22;10761;48.532;8.026;2023-06-14T13:35:24;28.50;1.00
21207;DHT22;10761;48.532;8.026;2023-06-14T13:37:50;28.60;1.00
21207;DHT22;10761;48.532;8.026;2023-06-14T13:40:15;28.40;1.00
21207;DHT22;10761;48.532;8.026;2023-06-14T13:42:41;28.00;1.00
21207;DHT22;10761;48.532;8.026;2023-06-14T13:45:08;28.10;1.00
21207;DHT22;10761;48.532;8.026;2023-06-14T13:47:34;28.00;1.00
21207;DHT22;10761;48.532;8.026;2023-06-14T13:50:00;28.10;1.00
21207;DHT22;10761;48.532;8.026;2023-06-14T13:52:25;28.10;1.00
21207;DHT22;10761;48.532;8.026;2023-06-14T13:54:51;28.30;1.00
21207;DHT22;10761;48.532;8.026;2023-06-14T13:57:17;28.50;1.00
21207;DHT22;10761;48.532;8.026;2023-06-14T13:59:43;28.30;1.00
21207;DHT22;10761;48.532;8.026;2023-06-14T14:02:12;28.40;1.00
21207;DHT22;10761;48.532;8.026;2023-06-14T14:04:38;28.40;1.00
21207;DHT22;10761;48.532;8.026;2023-06-14T14:07:04;28.10;1.00
21207;DHT22;10761;48.532;8.026;2023-06-14T14:09:31;28.10;1.00
21207;DHT22;10761;48.532;8.026;2023-06-14T14:11:58;28.30;1.00
21207;DHT22;10761;48.532;8.026;2023-06-14T14:14:24;28.40;1.00
21207;DHT22;10761;48.532;8.026;2023-06-14T14:16:50;28.10;1.00
21207;DHT22;10761;48.532;8.026;2023-06-14T14:19:17;28.40;1.00
21207;DHT22;10761;48.532;8.026;2023-06-14T14:21:44;28.50;1.00
21207;DHT22;10761;48.532;8.026;2023-06-14T14:24:10;28.30;1.00
21207;DHT22;10761;48.532;8.026;2023-06-14T14:26:36;28.20;1.00
21207;DHT22;10761;48.532;8.026;2023-06-14T14:29:02;28.20;1.00
21207;DHT22;10761;48.532;8.026;2023-06-14T14:31:28;28.20;1.00
21207;DHT22;10761;48.532;8.026;2023-06-14T14:33:54;28.40;1.00
21207;DHT22;10761;48.532;8.026;2023-06-14T14:36:20;28.60;1.00
21207;DHT22;10761;48.532;8.026;2023-06-14T14:38:45;28.80;1.00
21207;DHT22;10761;48.532;8.026;2023-06-14T14:41:12;28.70;1.00
21207;DHT22;10761;48.532;8.026;2023-06-14T14:43:38;28.70;1.00
21207;DHT22;10761;48.532;8.026;2023-06-14T14:46:04;28.80;1.00
21207;DHT22;10761;48.532;8.026;2023-06-14T14:48:29;28.60;1.00
21207;DHT22;10761;48.532;8.026;2023-06-14T14:50:55;28.50;1.00
21207;DHT22;10761;48.532;8.026;2023-06-14T14:53:21;28.50;1.00
21207;DHT22;10761;48.532;8.026;2023-06-14T14:55:46;28.40;1.00
21207;DHT22;10761;48.532;8.026;2023-06-14T14:58:12;28.00;1.00
21207;DHT22;10761;48.532;8.026;2023-06-14T15:00:38;27.80;1.00
21207;DHT22;10761;48.532;8.026;2023-06-14T15:03:03;27.90;1.00
21207;DHT22;10761;48.532;8.026;2023-06-14T15:05:29;27.70;1.00
21207;DHT22;10761;48.532;8.026;2023-06-14T15:07:55;27.60;1.00
21207;DHT22;10761;48.532;8.026;2023-06-14T15:10:20;27.60;1.00
21207;DHT22;10761;48.532;8.026;2023-06-14T15:12:46;27.60;1.00
21207;DHT22;10761;48.532;8.026;2023-06-14T15:15:12;27.60;1.00
21207;DHT22;10761;48.532;8.026;2023-06-14T15:17:37;27.60;1.00
21207;DHT22;10761;48.532;8.026;2023-06-14T15:20:03;27.50;1.00
21207;DHT22;10761;48.532;8.026;2023-06-14T15:22:31;27.40;1.00
21207;DHT22;10761;48.532;8.026;2023-06-14T15:24:56;27.60;1.00
21207;DHT22;10761;48.532;8.026;2023-06-14T15:27:22;27.60;1.00
21207;DHT22;10761;48.532;8.026;2023-06-14T15:29:48;27.50;1.00
21207;DHT22;10761;48.532;8.026;2023-06-14T15:32:13;27.30;1.00
21207;DHT22;10761;48.532;8.026;2023-06-14T15:34:39;27.10;1.00
21207;DHT22;10761;48.532;8.026;2023-06-14T15:37:08;27.20;1.00
21207;DHT22;10761;48.532;8.026;2023-06-14T15:39:33;27.00;1.00
21207;DHT22;10761;48.532;8.026;2023-06-14T15:41:59;27.10;1.00
21207;DHT22;10761;48.532;8.026;2023-06-14T15:44:26;27.00;1.00
21207;DHT22;10761;48.532;8.026;2023-06-14T15:46:52;27.00;1.00
21207;DHT22;10761;48.532;8.026;2023-06-14T15:49:17;27.10;1.00
21207;DHT22;10761;48.532;8.026;2023-06-14T15:51:44;27.10;1.00
21207;DHT22;10761;48.532;8.026;2023-06-14T15:54:10;27.20;1.00
21207;DHT22;10761;48.532;8.026;2023-06-14T15:56:36;27.20;1.00
21207;DHT22;10761;48.532;8.026;2023-06-14T15:59:01;27.10;1.00
21207;DHT22;10761;48.532;8.026;2023-06-14T16:01:28;27.10;1.00
21207;DHT22;10761;48.532;8.026;2023-06-14T16:03:53;27.30;1.00
21207;DHT22;10761;48.532;8.026;2023-06-14T16:06:21;27.20;1.00
21207;DHT22;10761;48.532;8.026;2023-06-14T16:08:47;27.20;1.00
21207;DHT22;10761;48.532;8.026;2023-06-14T16:11:12;27.20;1.00
21207;DHT22;10761;48.532;8.026;2023-06-14T16:13:41;27.30;1.00
21207;DHT22;10761;48.532;8.026;2023-06-14T16:16:08;27.40;1.00
21207;DHT22;10761;48.532;8.026;2023-06-14T16:18:34;27.00;1.00
21207;DHT22;10761;48.532;8.026;2023-06-14T16:20:59;26.70;1.00
21207;DHT22;10761;48.532;8.026;2023-06-14T16:23:25;26.60;1.00
21207;DHT22;10761;48.532;8.026;2023-06-14T16:25:51;26.60;1.00
21207;DHT22;10761;48.532;8.026;2023-06-14T16:28:17;26.60;1.00
21207;DHT22;10761;48.532;8.026;2023-06-14T16:30:42;26.70;1.00
21207;DHT22;10761;48.532;8.026;2023-06-14T16:33:08;26.70;1.00
21207;DHT22;10761;48.532;8.026;2023-06-14T16:35:33;26.60;1.00